sensor_id;sensor_type;location;lat;lon;timestamp;P1;durP1;ratioP1;P2;durP2;ratioP2
1721;SDS011;858;53.190;8.596;2023-08-06T00:02:21;4.60;;;4.07;;
1721;SDS011;858;53.190;8.596;2023-08-06T00:04:47;5.70;;;4.20;;
1721;SDS011;858;53.190;8.596;2023-08-06T00:07:14;5.70;;;4.40;;
1721;SDS011;858;53.190;8.596;2023-08-06T00:09:40;7.60;;;4.17;;
1721;SDS011;858;53.190;8.596;2023-08-06T00:12:07;4.60;;;3.80;;
1721;SDS011;858;53.190;8.596;2023-08-06T00:14:34;4.10;;;3.70;;
1721;SDS011;858;53.190;8.596;2023-08-06T00:17:02;6.00;;;3.80;;
1721;SDS011;858;53.190;8.596;2023-08-06T00:19:29;6.73;;;4.03;;
1721;SDS011;858;53.190;8.596;2023-08-06T00:21:56;6.30;;;4.67;;
1721;SDS011;858;53.190;8.596;2023-08-06T00:24:22;5.20;;;4.33;;
1721;SDS011;858;53.190;8.596;2023-08-06T00:26:48;6.33;;;4.03;;
1721;SDS011;858;53.190;8.596;2023-08-06T00:29:15;4.23;;;3.83;;
1721;SDS011;858;53.190;8.596;2023-08-06T00:31:42;4.03;;;3.63;;
1721;SDS011;858;53.190;8.596;2023-08-06T00:34:10;5.23;;;4.73;;
1721;SDS011;858;53.190;8.596;2023-08-06T00:36:36;4.53;;;4.10;;
1721;SDS011;858;53.190;8.596;2023-08-06T00:39:02;7.73;;;4.43;;
1721;SDS011;858;53.190;8.596;2023-08-06T00:41:29;5.70;;;5.20;;
1721;SDS011;858;53.190;8.596;2023-08-06T00:43:55;4.57;;;4.17;;
1721;SDS011;858;53.190;8.596;2023-08-06T00:46:21;4.90;;;4.50;;
1721;SDS011;858;53.190;8.596;2023-08-06T00:48:48;4.00;;;3.60;;
1721;SDS011;858;53.190;8.596;2023-08-06T00:51:16;5.17;;;4.43;;
1721;SDS011;858;53.190;8.596;2023-08-06T00:53:42;5.00;;;4.50;;
1721;SDS011;858;53.190;8.596;2023-08-06T00:56:09;7.20;;;4.40;;
1721;SDS011;858;53.190;8.596;2023-08-06T00:58:35;7.57;;;3.60;;
1721;SDS011;858;53.190;8.596;2023-08-06T01:01:02;5.37;;;4.57;;
1721;SDS011;858;53.190;8.596;2023-08-06T01:03:29;5.23;;;4.47;;
1721;SDS011;858;53.190;8.596;2023-08-06T01:05:56;4.93;;;4.10;;
1721;SDS011;858;53.190;8.596;2023-08-06T01:08:28;4.47;;;4.07;;
1721;SDS011;858;53.190;8.596;2023-08-06T01:11:00;7.60;;;4.37;;
1721;SDS011;858;53.190;8.596;2023-08-06T01:13:31;4.70;;;4.20;;
1721;SDS011;858;53.190;8.596;2023-08-06T01:15:59;5.73;;;5.03;;
1721;SDS011;858;53.190;8.596;2023-08-06T01:18:26;4.57;;;4.17;;
1721;SDS011;858;53.190;8.596;2023-08-06T01:20:54;8.63;;;3.97;;
1721;SDS011;858;53.190;8.596;2023-08-06T01:23:20;5.60;;;5.00;;
1721;SDS011;858;53.190;8.596;2023-08-06T01:25:48;6.00;;;4.97;;
1721;SDS011;858;53.190;8.596;2023-08-06T01:28:22;6.00;;;4.47;;
1721;SDS011;858;53.190;8.596;2023-08-06T01:30:52;5.63;;;5.10;;
1721;SDS011;858;53.190;8.596;2023-08-06T01:33:21;5.90;;;4.53;;
1721;SDS011;858;53.190;8.596;2023-08-06T01:35:47;5.10;;;4.30;;
1721;SDS011;858;53.190;8.596;2023-08-06T01:38:16;6.50;;;5.70;;
1721;SDS011;858;53.190;8.596;2023-08-06T01:40:42;5.30;;;4.80;;
1721;SDS011;858;53.190;8.596;2023-08-06T01:43:08;8.40;;;5.20;;
1721;SDS011;858;53.190;8.596;2023-08-06T01:45:35;7.63;;;6.13;;
1721;SDS011;858;53.190;8.596;2023-08-06T01:48:02;7.33;;;5.00;;
1721;SDS011;858;53.190;8.596;2023-08-06T01:50:29;5.50;;;4.90;;
1721;SDS011;858;53.190;8.596;2023-08-06T01:52:55;6.70;;;5.43;;
1721;SDS011;858;53.190;8.596;2023-08-06T01:55:23;7.00;;;6.30;;
1721;SDS011;858;53.190;8.596;2023-08-06T01:57:49;6.23;;;5.50;;
1721;SDS011;858;53.190;8.596;2023-08-06T02:00:16;6.10;;;5.50;;
1721;SDS011;858;53.190;8.596;2023-08-06T02:02:42;7.10;;;6.10;;
1721;SDS011;858;53.190;8.596;2023-08-06T02:05:08;9.40;;;6.13;;
1721;SDS011;858;53.190;8.596;2023-08-06T02:07:35;8.53;;;6.10;;
1721;SDS011;858;53.190;8.596;2023-08-06T02:10:01;6.10;;;5.50;;
1721;SDS011;858;53.190;8.596;2023-08-06T02:12:29;7.80;;;5.73;;
1721;SDS011;858;53.190;8.596;2023-08-06T02:14:56;8.13;;;5.40;;
1721;SDS011;858;53.190;8.596;2023-08-06T02:17:22;7.17;;;5.40;;
1721;SDS011;858;53.190;8.596;2023-08-06T02:19:48;6.80;;;5.43;;
1721;SDS011;858;53.190;8.596;2023-08-06T02:22:15;10.20;;;5.67;;
1721;SDS011;858;53.190;8.596;2023-08-06T02:24:41;5.93;;;5.43;;
1721;SDS011;858;53.190;8.596;2023-08-06T02:27:08;7.83;;;5.80;;
1721;SDS011;858;53.190;8.596;2023-08-06T02:29:35;6.20;;;5.63;;
1721;SDS011;858;53.190;8.596;2023-08-06T02:32:02;7.47;;;5.40;;
1721;SDS011;858;53.190;8.596;2023-08-06T02:34:29;5.40;;;4.80;;
1721;SDS011;858;53.190;8.596;2023-08-06T02:36:55;7.67;;;5.33;;
1721;SDS011;858;53.190;8.596;2023-08-06T02:39:21;8.17;;;6.03;;
1721;SDS011;858;53.190;8.596;2023-08-06T02:41:48;5.57;;;5.07;;
1721;SDS011;858;53.190;8.596;2023-08-06T02:44:14;6.20;;;5.53;;
1721;SDS011;858;53.190;8.596;2023-08-06T02:46:45;7.30;;;5.40;;
1721;SDS011;858;53.190;8.596;2023-08-06T02:49:11;6.80;;;5.97;;
1721;SDS011;858;53.190;8.596;2023-08-06T02:51:38;6.30;;;5.70;;
1721;SDS011;858;53.190;8.596;2023-08-06T02:54:05;7.50;;;5.87;;
1721;SDS011;858;53.190;8.596;2023-08-06T02:56:31;6.47;;;5.87;;
1721;SDS011;858;53.190;8.596;2023-08-06T02:58:57;10.70;;;6.63;;
1721;SDS011;858;53.190;8.596;2023-08-06T03:01:25;6.77;;;6.13;;
1721;SDS011;858;53.190;8.596;2023-08-06T03:03:53;7.73;;;6.63;;
1721;SDS011;858;53.190;8.596;2023-08-06T03:06:19;6.90;;;6.20;;
1721;SDS011;858;53.190;8.596;2023-08-06T03:08:46;8.03;;;6.40;;
1721;SDS011;858;53.190;8.596;2023-08-06T03:11:12;7.10;;;6.40;;
1721;SDS011;858;53.190;8.596;2023-08-06T03:13:38;8.10;;;5.90;;
1721;SDS011;858;53.190;8.596;2023-08-06T03:16:05;8.73;;;6.03;;
1721;SDS011;858;53.190;8.596;2023-08-06T03:18:31;7.40;;;6.20;;
1721;SDS011;858;53.190;8.596;2023-08-06T03:20:59;13.70;;;7.07;;
1721;SDS011;858;53.190;8.596;2023-08-06T03:23:25;7.13;;;5.80;;
1721;SDS011;858;53.190;8.596;2023-08-06T03:25:52;7.90;;;6.40;;
1721;SDS011;858;53.190;8.596;2023-08-06T03:28:18;6.40;;;5.70;;
1721;SDS011;858;53.190;8.596;2023-08-06T03:30:44;8.23;;;6.87;;
1721;SDS011;858;53.190;8.596;2023-08-06T03:33:11;7.50;;;6.73;;
1721;SDS011;858;53.190;8.596;2023-08-06T03:35:37;7.10;;;6.40;;
1721;SDS011;858;53.190;8.596;2023-08-06T03:38:05;6.53;;;5.83;;
1721;SDS011;858;53.190;8.596;2023-08-06T03:40:31;7.90;;;6.73;;
1721;SDS011;858;53.190;8.596;2023-08-06T03:42:58;7.63;;;6.83;;
1721;SDS011;858;53.190;8.596;2023-08-06T03:45:26;6.53;;;5.90;;
1721;SDS011;858;53.190;8.596;2023-08-06T03:47:54;7.47;;;6.57;;
1721;SDS011;858;53.190;8.596;2023-08-06T03:50:20;7.83;;;6.37;;
1721;SDS011;858;53.190;8.596;2023-08-06T03:52:47;10.10;;;7.77;;
1721;SDS011;858;53.190;8.596;2023-08-06T03:55:15;9.70;;;7.30;;
1721;SDS011;858;53.190;8.596;2023-08-06T03:57:41;11.00;;;9.10;;
1721;SDS011;858;53.190;8.596;2023-08-06T04:00:08;9.40;;;7.17;;
1721;SDS011;858;53.190;8.596;2023-08-06T04:02:34;8.53;;;7.53;;
1721;SDS011;858;53.190;8.596;2023-08-06T04:05:01;8.63;;;7.70;;
1721;SDS011;858;53.190;8.596;2023-08-06T04:07:27;12.87;;;8.37;;
1721;SDS011;858;53.190;8.596;2023-08-06T04:09:56;9.00;;;8.17;;
1721;SDS011;858;53.190;8.596;2023-08-06T04:12:24;9.93;;;7.40;;
1721;SDS011;858;53.190;8.596;2023-08-06T04:14:51;8.90;;;8.00;;
1721;SDS011;858;53.190;8.596;2023-08-06T04:17:18;10.70;;;7.33;;
1721;SDS011;858;53.190;8.596;2023-08-06T04:19:45;12.30;;;8.27;;
1721;SDS011;858;53.190;8.596;2023-08-06T04:22:12;11.90;;;7.67;;
1721;SDS011;858;53.190;8.596;2023-08-06T04:24:38;9.30;;;8.40;;
1721;SDS011;858;53.190;8.596;2023-08-06T04:27:05;9.83;;;8.63;;
1721;SDS011;858;53.190;8.596;2023-08-06T04:29:33;10.33;;;7.97;;
1721;SDS011;858;53.190;8.596;2023-08-06T04:31:59;10.37;;;8.17;;
1721;SDS011;858;53.190;8.596;2023-08-06T04:34:26;9.43;;;7.27;;
1721;SDS011;858;53.190;8.596;2023-08-06T04:36:52;9.23;;;8.10;;
1721;SDS011;858;53.190;8.596;2023-08-06T04:39:18;12.10;;;9.43;;
1721;SDS011;858;53.190;8.596;2023-08-06T04:41:45;11.17;;;8.13;;
1721;SDS011;858;53.190;8.596;2023-08-06T04:44:11;13.53;;;9.13;;
1721;SDS011;858;53.190;8.596;2023-08-06T04:46:39;11.03;;;8.33;;
1721;SDS011;858;53.190;8.596;2023-08-06T04:49:05;15.50;;;8.10;;
1721;SDS011;858;53.190;8.596;2023-08-06T04:51:33;9.20;;;8.23;;
1721;SDS011;858;53.190;8.596;2023-08-06T04:54:00;10.23;;;8.17;;
1721;SDS011;858;53.190;8.596;2023-08-06T04:56:26;10.93;;;9.43;;
1721;SDS011;858;53.190;8.596;2023-08-06T04:58:53;10.23;;;9.00;;
1721;SDS011;858;53.190;8.596;2023-08-06T05:01:19;9.90;;;8.43;;
1721;SDS011;858;53.190;8.596;2023-08-06T05:03:47;9.17;;;8.27;;
1721;SDS011;858;53.190;8.596;2023-08-06T05:06:14;11.80;;;9.97;;
1721;SDS011;858;53.190;8.596;2023-08-06T05:08:40;10.57;;;9.43;;
1721;SDS011;858;53.190;8.596;2023-08-06T05:11:06;11.73;;;9.70;;
1721;SDS011;858;53.190;8.596;2023-08-06T05:13:33;12.33;;;9.33;;
1721;SDS011;858;53.190;8.596;2023-08-06T05:15:59;11.50;;;9.40;;
1721;SDS011;858;53.190;8.596;2023-08-06T05:18:25;10.57;;;9.47;;
1721;SDS011;858;53.190;8.596;2023-08-06T05:20:53;10.03;;;9.00;;
1721;SDS011;858;53.190;8.596;2023-08-06T05:23:19;10.40;;;9.30;;
1721;SDS011;858;53.190;8.596;2023-08-06T05:25:46;14.37;;;9.73;;
1721;SDS011;858;53.190;8.596;2023-08-06T05:28:13;10.37;;;9.10;;
1721;SDS011;858;53.190;8.596;2023-08-06T05:30:40;13.77;;;10.37;;
1721;SDS011;858;53.190;8.596;2023-08-06T05:33:06;12.03;;;10.07;;
1721;SDS011;858;53.190;8.596;2023-08-06T05:35:33;16.07;;;10.47;;
1721;SDS011;858;53.190;8.596;2023-08-06T05:38:01;12.53;;;10.30;;
1721;SDS011;858;53.190;8.596;2023-08-06T05:40:27;13.53;;;12.20;;
1721;SDS011;858;53.190;8.596;2023-08-06T05:42:54;15.80;;;13.13;;
1721;SDS011;858;53.190;8.596;2023-08-06T05:45:20;15.70;;;13.83;;
1721;SDS011;858;53.190;8.596;2023-08-06T05:47:47;16.33;;;14.43;;
1721;SDS011;858;53.190;8.596;2023-08-06T05:50:14;19.33;;;16.10;;
1721;SDS011;858;53.190;8.596;2023-08-06T05:52:40;18.40;;;15.03;;
1721;SDS011;858;53.190;8.596;2023-08-06T05:55:09;27.33;;;17.07;;
1721;SDS011;858;53.190;8.596;2023-08-06T05:57:35;28.43;;;18.60;;
1721;SDS011;858;53.190;8.596;2023-08-06T06:00:01;20.90;;;16.63;;
1721;SDS011;858;53.190;8.596;2023-08-06T06:02:31;25.63;;;15.93;;
1721;SDS011;858;53.190;8.596;2023-08-06T06:04:57;27.00;;;19.00;;
1721;SDS011;858;53.190;8.596;2023-08-06T06:07:24;28.00;;;20.03;;
1721;SDS011;858;53.190;8.596;2023-08-06T06:09:50;25.70;;;17.90;;
1721;SDS011;858;53.190;8.596;2023-08-06T06:12:18;28.00;;;19.50;;
1721;SDS011;858;53.190;8.596;2023-08-06T06:14:45;29.10;;;19.17;;
1721;SDS011;858;53.190;8.596;2023-08-06T06:17:11;29.53;;;20.50;;
1721;SDS011;858;53.190;8.596;2023-08-06T06:19:37;31.03;;;21.07;;
1721;SDS011;858;53.190;8.596;2023-08-06T06:22:04;22.97;;;17.80;;
1721;SDS011;858;53.190;8.596;2023-08-06T06:24:30;24.43;;;17.87;;
1721;SDS011;858;53.190;8.596;2023-08-06T06:26:56;25.50;;;17.20;;
1721;SDS011;858;53.190;8.596;2023-08-06T06:29:24;19.97;;;15.07;;
1721;SDS011;858;53.190;8.596;2023-08-06T06:31:51;21.30;;;15.10;;
1721;SDS011;858;53.190;8.596;2023-08-06T06:34:17;18.17;;;13.40;;
1721;SDS011;858;53.190;8.596;2023-08-06T06:36:43;23.83;;;14.20;;
1721;SDS011;858;53.190;8.596;2023-08-06T06:39:10;14.77;;;11.60;;
1721;SDS011;858;53.190;8.596;2023-08-06T06:41:36;18.83;;;12.43;;
1721;SDS011;858;53.190;8.596;2023-08-06T06:44:03;15.33;;;12.30;;
1721;SDS011;858;53.190;8.596;2023-08-06T06:46:32;17.57;;;10.70;;
1721;SDS011;858;53.190;8.596;2023-08-06T06:48:59;14.97;;;12.03;;
1721;SDS011;858;53.190;8.596;2023-08-06T06:51:25;14.00;;;11.97;;
1721;SDS011;858;53.190;8.596;2023-08-06T06:53:51;12.67;;;10.50;;
1721;SDS011;858;53.190;8.596;2023-08-06T06:56:18;13.03;;;10.10;;
1721;SDS011;858;53.190;8.596;2023-08-06T06:58:44;12.20;;;10.40;;
1721;SDS011;858;53.190;8.596;2023-08-06T07:01:10;11.13;;;9.90;;
1721;SDS011;858;53.190;8.596;2023-08-06T07:03:39;10.70;;;9.60;;
1721;SDS011;858;53.190;8.596;2023-08-06T07:06:05;11.03;;;9.20;;
1721;SDS011;858;53.190;8.596;2023-08-06T07:08:32;13.60;;;11.80;;
1721;SDS011;858;53.190;8.596;2023-08-06T07:11:01;14.77;;;11.27;;
1721;SDS011;858;53.190;8.596;2023-08-06T07:13:28;10.07;;;9.03;;
1721;SDS011;858;53.190;8.596;2023-08-06T07:15:56;11.27;;;9.63;;
1721;SDS011;858;53.190;8.596;2023-08-06T07:18:23;13.17;;;11.90;;
1721;SDS011;858;53.190;8.596;2023-08-06T07:20:51;15.13;;;13.17;;
1721;SDS011;858;53.190;8.596;2023-08-06T07:23:19;18.83;;;16.20;;
1721;SDS011;858;53.190;8.596;2023-08-06T07:25:45;19.97;;;17.03;;
1721;SDS011;858;53.190;8.596;2023-08-06T07:28:12;13.63;;;12.13;;
1721;SDS011;858;53.190;8.596;2023-08-06T07:30:38;14.47;;;12.50;;
1721;SDS011;858;53.190;8.596;2023-08-06T07:33:05;16.70;;;15.00;;
1721;SDS011;858;53.190;8.596;2023-08-06T07:35:32;15.90;;;14.20;;
1721;SDS011;858;53.190;8.596;2023-08-06T07:38:00;17.47;;;15.80;;
1721;SDS011;858;53.190;8.596;2023-08-06T07:40:26;18.70;;;16.47;;
1721;SDS011;858;53.190;8.596;2023-08-06T07:42:53;17.13;;;15.43;;
1721;SDS011;858;53.190;8.596;2023-08-06T07:45:20;17.00;;;12.90;;
1721;SDS011;858;53.190;8.596;2023-08-06T07:47:46;15.00;;;13.40;;
1721;SDS011;858;53.190;8.596;2023-08-06T07:50:12;13.17;;;11.77;;
1721;SDS011;858;53.190;8.596;2023-08-06T07:52:39;12.17;;;10.60;;
1721;SDS011;858;53.190;8.596;2023-08-06T07:55:07;11.00;;;9.83;;
1721;SDS011;858;53.190;8.596;2023-08-06T07:57:33;12.40;;;10.13;;
1721;SDS011;858;53.190;8.596;2023-08-06T08:00:00;11.70;;;9.00;;
1721;SDS011;858;53.190;8.596;2023-08-06T08:02:26;8.70;;;7.90;;
1721;SDS011;858;53.190;8.596;2023-08-06T08:04:55;10.73;;;9.70;;
1721;SDS011;858;53.190;8.596;2023-08-06T08:07:21;10.47;;;9.57;;
1721;SDS011;858;53.190;8.596;2023-08-06T08:09:49;11.80;;;10.60;;
1721;SDS011;858;53.190;8.596;2023-08-06T08:12:17;10.77;;;9.87;;
1721;SDS011;858;53.190;8.596;2023-08-06T08:14:43;12.87;;;11.43;;
1721;SDS011;858;53.190;8.596;2023-08-06T08:17:10;14.60;;;11.00;;
1721;SDS011;858;53.190;8.596;2023-08-06T08:19:37;10.03;;;9.10;;
1721;SDS011;858;53.190;8.596;2023-08-06T08:22:03;10.40;;;9.40;;
1721;SDS011;858;53.190;8.596;2023-08-06T08:24:30;10.33;;;9.30;;
1721;SDS011;858;53.190;8.596;2023-08-06T08:26:56;8.10;;;7.37;;
1721;SDS011;858;53.190;8.596;2023-08-06T08:29:24;10.23;;;8.33;;
1721;SDS011;858;53.190;8.596;2023-08-06T08:31:50;7.33;;;6.53;;
1721;SDS011;858;53.190;8.596;2023-08-06T08:34:16;7.90;;;7.20;;
1721;SDS011;858;53.190;8.596;2023-08-06T08:36:43;7.73;;;7.03;;
1721;SDS011;858;53.190;8.596;2023-08-06T08:39:12;8.10;;;6.73;;
1721;SDS011;858;53.190;8.596;2023-08-06T08:41:38;7.13;;;6.53;;
1721;SDS011;858;53.190;8.596;2023-08-06T08:44:05;8.67;;;6.20;;
1721;SDS011;858;53.190;8.596;2023-08-06T08:46:37;6.37;;;5.77;;
1721;SDS011;858;53.190;8.596;2023-08-06T08:49:04;8.63;;;5.90;;
1721;SDS011;858;53.190;8.596;2023-08-06T08:51:31;6.03;;;5.43;;
1721;SDS011;858;53.190;8.596;2023-08-06T08:53:58;5.63;;;5.13;;
1721;SDS011;858;53.190;8.596;2023-08-06T08:56:25;4.27;;;3.90;;
1721;SDS011;858;53.190;8.596;2023-08-06T08:58:53;4.77;;;4.37;;
1721;SDS011;858;53.190;8.596;2023-08-06T09:01:20;4.77;;;4.23;;
1721;SDS011;858;53.190;8.596;2023-08-06T09:03:49;5.13;;;4.40;;
1721;SDS011;858;53.190;8.596;2023-08-06T09:06:16;4.73;;;4.30;;
1721;SDS011;858;53.190;8.596;2023-08-06T09:08:54;4.83;;;4.30;;
1721;SDS011;858;53.190;8.596;2023-08-06T09:11:22;6.13;;;5.07;;
1721;SDS011;858;53.190;8.596;2023-08-06T09:13:49;5.43;;;4.50;;
1721;SDS011;858;53.190;8.596;2023-08-06T09:16:16;4.20;;;3.80;;
1721;SDS011;858;53.190;8.596;2023-08-06T09:18:42;4.80;;;4.40;;
1721;SDS011;858;53.190;8.596;2023-08-06T09:21:14;4.80;;;4.40;;
1721;SDS011;858;53.190;8.596;2023-08-06T09:23:41;4.50;;;4.10;;
1721;SDS011;858;53.190;8.596;2023-08-06T09:26:10;4.30;;;3.90;;
1721;SDS011;858;53.190;8.596;2023-08-06T09:28:37;4.73;;;4.23;;
1721;SDS011;858;53.190;8.596;2023-08-06T09:31:04;4.20;;;3.80;;
1721;SDS011;858;53.190;8.596;2023-08-06T09:33:31;4.60;;;4.20;;
1721;SDS011;858;53.190;8.596;2023-08-06T09:35:57;4.23;;;3.77;;
1721;SDS011;858;53.190;8.596;2023-08-06T09:38:35;3.90;;;3.60;;
1721;SDS011;858;53.190;8.596;2023-08-06T09:41:03;3.93;;;3.50;;
1721;SDS011;858;53.190;8.596;2023-08-06T09:43:29;4.00;;;3.63;;
1721;SDS011;858;53.190;8.596;2023-08-06T09:45:55;3.50;;;3.03;;
1721;SDS011;858;53.190;8.596;2023-08-06T09:48:22;3.40;;;3.10;;
1721;SDS011;858;53.190;8.596;2023-08-06T09:50:50;3.77;;;3.43;;
1721;SDS011;858;53.190;8.596;2023-08-06T09:53:17;3.40;;;3.10;;
1721;SDS011;858;53.190;8.596;2023-08-06T09:55:46;3.80;;;3.50;;
1721;SDS011;858;53.190;8.596;2023-08-06T09:58:12;3.37;;;3.17;;
1721;SDS011;858;53.190;8.596;2023-08-06T10:00:39;3.23;;;3.00;;
1721;SDS011;858;53.190;8.596;2023-08-06T10:03:06;3.77;;;3.20;;
1721;SDS011;858;53.190;8.596;2023-08-06T10:05:32;3.47;;;3.17;;
1721;SDS011;858;53.190;8.596;2023-08-06T10:07:59;3.40;;;3.10;;
1721;SDS011;858;53.190;8.596;2023-08-06T10:10:28;3.07;;;2.77;;
1721;SDS011;858;53.190;8.596;2023-08-06T10:12:58;3.40;;;2.60;;
1721;SDS011;858;53.190;8.596;2023-08-06T10:15:26;3.03;;;2.53;;
1721;SDS011;858;53.190;8.596;2023-08-06T10:17:54;3.23;;;3.00;;
1721;SDS011;858;53.190;8.596;2023-08-06T10:20:22;2.70;;;2.50;;
1721;SDS011;858;53.190;8.596;2023-08-06T10:22:59;10.37;;;2.60;;
1721;SDS011;858;53.190;8.596;2023-08-06T10:25:26;3.20;;;2.87;;
1721;SDS011;858;53.190;8.596;2023-08-06T10:27:56;2.87;;;2.67;;
1721;SDS011;858;53.190;8.596;2023-08-06T10:30:25;2.57;;;2.20;;
1721;SDS011;858;53.190;8.596;2023-08-06T10:32:53;2.83;;;2.53;;
1721;SDS011;858;53.190;8.596;2023-08-06T10:35:34;4.27;;;2.30;;
1721;SDS011;858;53.190;8.596;2023-08-06T10:38:07;2.80;;;2.53;;
1721;SDS011;858;53.190;8.596;2023-08-06T10:40:33;2.57;;;2.37;;
1721;SDS011;858;53.190;8.596;2023-08-06T10:43:00;3.00;;;2.70;;
1721;SDS011;858;53.190;8.596;2023-08-06T10:45:28;3.10;;;2.90;;
1721;SDS011;858;53.190;8.596;2023-08-06T10:47:55;3.20;;;2.50;;
1721;SDS011;858;53.190;8.596;2023-08-06T10:50:22;3.60;;;3.20;;
1721;SDS011;858;53.190;8.596;2023-08-06T10:52:49;2.90;;;2.60;;
1721;SDS011;858;53.190;8.596;2023-08-06T10:55:21;3.17;;;2.93;;
1721;SDS011;858;53.190;8.596;2023-08-06T10:57:48;3.73;;;3.40;;
1721;SDS011;858;53.190;8.596;2023-08-06T11:00:14;3.50;;;2.63;;
1721;SDS011;858;53.190;8.596;2023-08-06T11:02:42;3.73;;;3.43;;
1721;SDS011;858;53.190;8.596;2023-08-06T11:05:10;6.13;;;2.93;;
1721;SDS011;858;53.190;8.596;2023-08-06T11:07:37;3.30;;;2.57;;
1721;SDS011;858;53.190;8.596;2023-08-06T11:10:04;2.93;;;2.67;;
1721;SDS011;858;53.190;8.596;2023-08-06T11:12:31;3.07;;;2.43;;
1721;SDS011;858;53.190;8.596;2023-08-06T11:14:57;3.13;;;2.77;;
1721;SDS011;858;53.190;8.596;2023-08-06T11:17:24;3.20;;;2.93;;
1721;SDS011;858;53.190;8.596;2023-08-06T11:19:52;3.10;;;2.80;;
1721;SDS011;858;53.190;8.596;2023-08-06T11:22:19;5.60;;;3.07;;
1721;SDS011;858;53.190;8.596;2023-08-06T11:24:46;3.23;;;2.47;;
1721;SDS011;858;53.190;8.596;2023-08-06T11:27:12;3.40;;;3.10;;
1721;SDS011;858;53.190;8.596;2023-08-06T11:29:40;2.63;;;2.40;;
1721;SDS011;858;53.190;8.596;2023-08-06T11:32:06;4.10;;;3.00;;
1721;SDS011;858;53.190;8.596;2023-08-06T11:34:33;3.60;;;3.30;;
1721;SDS011;858;53.190;8.596;2023-08-06T11:37:01;4.40;;;3.47;;
1721;SDS011;858;53.190;8.596;2023-08-06T11:39:29;3.57;;;3.27;;
1721;SDS011;858;53.190;8.596;2023-08-06T11:41:56;2.93;;;2.73;;
1721;SDS011;858;53.190;8.596;2023-08-06T11:44:25;4.63;;;2.90;;
1721;SDS011;858;53.190;8.596;2023-08-06T11:46:51;3.40;;;3.20;;
1721;SDS011;858;53.190;8.596;2023-08-06T11:49:20;3.30;;;3.00;;
1721;SDS011;858;53.190;8.596;2023-08-06T11:51:49;3.93;;;2.87;;
1721;SDS011;858;53.190;8.596;2023-08-06T11:54:31;5.30;;;3.20;;
1721;SDS011;858;53.190;8.596;2023-08-06T11:57:00;3.30;;;3.10;;
1721;SDS011;858;53.190;8.596;2023-08-06T11:59:27;5.93;;;3.27;;
1721;SDS011;858;53.190;8.596;2023-08-06T12:01:54;4.13;;;3.83;;
1721;SDS011;858;53.190;8.596;2023-08-06T12:04:20;3.60;;;3.30;;
1721;SDS011;858;53.190;8.596;2023-08-06T12:06:46;4.40;;;3.87;;
1721;SDS011;858;53.190;8.596;2023-08-06T12:09:13;3.83;;;3.53;;
1721;SDS011;858;53.190;8.596;2023-08-06T12:11:40;4.10;;;3.80;;
1721;SDS011;858;53.190;8.596;2023-08-06T12:14:08;3.80;;;3.50;;
1721;SDS011;858;53.190;8.596;2023-08-06T12:16:36;3.67;;;3.37;;
1721;SDS011;858;53.190;8.596;2023-08-06T12:19:03;10.43;;;4.27;;
1721;SDS011;858;53.190;8.596;2023-08-06T12:21:30;4.23;;;3.83;;
1721;SDS011;858;53.190;8.596;2023-08-06T12:23:56;3.97;;;3.67;;
1721;SDS011;858;53.190;8.596;2023-08-06T12:26:22;3.50;;;3.20;;
1721;SDS011;858;53.190;8.596;2023-08-06T12:28:50;3.37;;;3.10;;
1721;SDS011;858;53.190;8.596;2023-08-06T12:31:20;4.53;;;3.97;;
1721;SDS011;858;53.190;8.596;2023-08-06T12:33:48;4.50;;;4.10;;
1721;SDS011;858;53.190;8.596;2023-08-06T12:36:15;3.80;;;3.50;;
1721;SDS011;858;53.190;8.596;2023-08-06T12:38:41;3.77;;;3.47;;
1721;SDS011;858;53.190;8.596;2023-08-06T12:41:07;5.07;;;3.90;;
1721;SDS011;858;53.190;8.596;2023-08-06T12:43:34;3.53;;;3.27;;
1721;SDS011;858;53.190;8.596;2023-08-06T12:46:01;4.00;;;3.70;;
1721;SDS011;858;53.190;8.596;2023-08-06T12:48:29;3.97;;;3.27;;
1721;SDS011;858;53.190;8.596;2023-08-06T12:50:55;6.53;;;3.70;;
1721;SDS011;858;53.190;8.596;2023-08-06T12:53:22;5.13;;;3.93;;
1721;SDS011;858;53.190;8.596;2023-08-06T12:55:48;6.30;;;3.90;;
1721;SDS011;858;53.190;8.596;2023-08-06T12:58:15;5.43;;;3.80;;
1721;SDS011;858;53.190;8.596;2023-08-06T13:00:41;4.43;;;4.03;;
1721;SDS011;858;53.190;8.596;2023-08-06T13:03:09;4.33;;;3.40;;
1721;SDS011;858;53.190;8.596;2023-08-06T13:05:35;5.03;;;4.53;;
1721;SDS011;858;53.190;8.596;2023-08-06T13:08:02;4.33;;;3.80;;
1721;SDS011;858;53.190;8.596;2023-08-06T13:10:29;4.13;;;3.73;;
1721;SDS011;858;53.190;8.596;2023-08-06T13:12:56;3.43;;;3.13;;
1721;SDS011;858;53.190;8.596;2023-08-06T13:15:22;3.87;;;3.53;;
1721;SDS011;858;53.190;8.596;2023-08-06T13:17:49;7.30;;;4.30;;
1721;SDS011;858;53.190;8.596;2023-08-06T13:20:16;5.30;;;4.80;;
1721;SDS011;858;53.190;8.596;2023-08-06T13:22:44;4.57;;;4.17;;
1721;SDS011;858;53.190;8.596;2023-08-06T13:25:11;6.27;;;4.73;;
1721;SDS011;858;53.190;8.596;2023-08-06T13:27:39;4.63;;;4.13;;
1721;SDS011;858;53.190;8.596;2023-08-06T13:30:06;3.57;;;3.37;;
1721;SDS011;858;53.190;8.596;2023-08-06T13:32:33;4.23;;;3.23;;
1721;SDS011;858;53.190;8.596;2023-08-06T13:35:01;3.47;;;3.03;;
1721;SDS011;858;53.190;8.596;2023-08-06T13:37:29;4.40;;;3.43;;
1721;SDS011;858;53.190;8.596;2023-08-06T13:39:55;3.77;;;3.47;;
1721;SDS011;858;53.190;8.596;2023-08-06T13:42:22;4.97;;;4.23;;
1721;SDS011;858;53.190;8.596;2023-08-06T13:44:48;3.77;;;3.37;;
1721;SDS011;858;53.190;8.596;2023-08-06T13:47:15;4.93;;;3.73;;
1721;SDS011;858;53.190;8.596;2023-08-06T13:49:41;5.33;;;3.53;;
1721;SDS011;858;53.190;8.596;2023-08-06T13:52:07;4.23;;;3.70;;
1721;SDS011;858;53.190;8.596;2023-08-06T13:54:35;5.83;;;3.47;;
1721;SDS011;858;53.190;8.596;2023-08-06T13:57:01;3.90;;;3.60;;
1721;SDS011;858;53.190;8.596;2023-08-06T13:59:28;7.80;;;3.60;;
1721;SDS011;858;53.190;8.596;2023-08-06T14:01:54;5.97;;;3.70;;
1721;SDS011;858;53.190;8.596;2023-08-06T14:04:24;6.70;;;4.23;;
1721;SDS011;858;53.190;8.596;2023-08-06T14:06:51;4.53;;;3.80;;
1721;SDS011;858;53.190;8.596;2023-08-06T14:09:17;4.13;;;3.73;;
1721;SDS011;858;53.190;8.596;2023-08-06T14:11:45;4.77;;;3.90;;
1721;SDS011;858;53.190;8.596;2023-08-06T14:14:12;4.23;;;3.47;;
1721;SDS011;858;53.190;8.596;2023-08-06T14:16:38;4.70;;;3.40;;
1721;SDS011;858;53.190;8.596;2023-08-06T14:19:05;3.63;;;3.30;;
1721;SDS011;858;53.190;8.596;2023-08-06T14:21:31;3.83;;;3.00;;
1721;SDS011;858;53.190;8.596;2023-08-06T14:23:58;3.83;;;2.97;;
1721;SDS011;858;53.190;8.596;2023-08-06T14:26:25;3.73;;;3.43;;
1721;SDS011;858;53.190;8.596;2023-08-06T14:28:52;5.40;;;3.67;;
1721;SDS011;858;53.190;8.596;2023-08-06T14:31:19;3.87;;;3.30;;
1721;SDS011;858;53.190;8.596;2023-08-06T14:33:46;3.20;;;2.90;;
1721;SDS011;858;53.190;8.596;2023-08-06T14:36:12;4.80;;;3.07;;
1721;SDS011;858;53.190;8.596;2023-08-06T14:38:38;3.93;;;3.17;;
1721;SDS011;858;53.190;8.596;2023-08-06T14:41:05;3.83;;;3.00;;
1721;SDS011;858;53.190;8.596;2023-08-06T14:43:31;3.33;;;2.90;;
1721;SDS011;858;53.190;8.596;2023-08-06T14:46:00;3.70;;;3.40;;
1721;SDS011;858;53.190;8.596;2023-08-06T14:48:27;6.47;;;3.40;;
1721;SDS011;858;53.190;8.596;2023-08-06T14:50:53;4.60;;;3.43;;
1721;SDS011;858;53.190;8.596;2023-08-06T14:53:20;5.37;;;2.77;;
1721;SDS011;858;53.190;8.596;2023-08-06T14:55:46;3.60;;;3.00;;
1721;SDS011;858;53.190;8.596;2023-08-06T14:58:13;3.67;;;3.10;;
1721;SDS011;858;53.190;8.596;2023-08-06T15:00:39;4.20;;;3.83;;
1721;SDS011;858;53.190;8.596;2023-08-06T15:03:07;3.63;;;3.27;;
1721;SDS011;858;53.190;8.596;2023-08-06T15:05:33;4.10;;;3.67;;
1721;SDS011;858;53.190;8.596;2023-08-06T15:08:00;3.63;;;3.10;;
1721;SDS011;858;53.190;8.596;2023-08-06T15:10:28;4.50;;;3.50;;
1721;SDS011;858;53.190;8.596;2023-08-06T15:13:00;3.60;;;3.30;;
1721;SDS011;858;53.190;8.596;2023-08-06T15:15:28;9.40;;;3.90;;
1721;SDS011;858;53.190;8.596;2023-08-06T15:17:54;3.60;;;3.20;;
1721;SDS011;858;53.190;8.596;2023-08-06T15:20:23;4.13;;;3.50;;
1721;SDS011;858;53.190;8.596;2023-08-06T15:22:51;3.90;;;3.50;;
1721;SDS011;858;53.190;8.596;2023-08-06T15:25:18;4.13;;;3.73;;